Time;durP1;ratioP1;P1;durP2;ratioP2;P2;SDS_P1;SDS_P2;PMS_P1;PMS_P2;Temp;Humidity;BMP_temperature;BMP_pressure;BME280_temperature;BME280_humidity;BME280_pressure;Samples;Min_cycle;Max_cycle;Signal;HPM_P1;HPM_P2
2023/12/10 00:02:19;;;;;;;28.10;23.07;;;;;;;3.08;63.41;94854.81;4985110;28;20215;-73
2023/12/10 00:04:45;;;;;;;25.87;23.07;;;;;;;3.24;62.51;94849.34;4972306;28;20239;-71
2023/12/10 00:07:10;;;;;;;27.73;22.77;;;;;;;3.00;62.91;94839.78;4977037;28;20223;-71
2023/12/10 00:09:36;;;;;;;28.00;23.93;;;;;;;2.92;63.75;94839.50;4987901;28;20228;-71
2023/12/10 00:12:02;;;;;;;29.67;24.03;;;;;;;2.96;63.85;94847.88;4968139;28;20226;-71
2023/12/10 00:14:27;;;;;;;27.03;22.87;;;;;;;3.07;63.46;94848.78;4990753;28;20178;-72
2023/12/10 00:16:54;;;;;;;27.20;23.43;;;;;;;3.22;62.55;94839.03;4994301;28;20234;-71
2023/12/10 00:19:19;;;;;;;30.03;23.00;;;;;;;3.25;62.22;94838.00;4973113;28;20307;-71
2023/12/10 00:21:46;;;;;;;26.23;23.37;;;;;;;3.31;62.62;94848.78;4974990;28;20313;-72
2023/12/10 00:24:11;;;;;;;28.63;22.23;;;;;;;3.31;62.08;94845.34;4989405;28;20214;-74
2023/12/10 00:26:37;;;;;;;26.37;23.43;;;;;;;3.27;62.29;94846.50;4973510;28;20190;-72
2023/12/10 00:29:02;;;;;;;27.80;23.27;;;;;;;3.21;62.71;94853.00;4990335;28;20273;-71
2023/12/10 00:31:27;;;;;;;27.00;23.20;;;;;;;3.22;62.36;94846.03;4985490;28;20237;-75
2023/12/10 00:33:53;;;;;;;26.07;22.93;;;;;;;3.26;62.51;94848.28;4989877;28;20219;-74
2023/12/10 00:36:18;;;;;;;27.73;21.70;;;;;;;2.92;63.32;94847.28;4984423;28;20307;-73
2023/12/10 00:38:45;;;;;;;25.70;21.90;;;;;;;3.02;62.80;94843.09;4973750;28;20215;-74
2023/12/10 00:41:11;;;;;;;27.13;23.57;;;;;;;3.16;62.43;94838.69;4965602;28;20219;-73
2023/12/10 00:43:38;;;;;;;27.73;23.17;;;;;;;3.14;62.43;94838.78;4979287;28;20330;-72
2023/12/10 00:46:05;;;;;;;25.47;22.37;;;;;;;3.20;62.34;94832.31;4984545;28;20223;-72
2023/12/10 00:48:30;;;;;;;29.43;23.07;;;;;;;3.22;62.39;94831.25;4992245;28;20215;-72
2023/12/10 00:50:55;;;;;;;29.17;24.33;;;;;;;3.26;62.41;94840.50;4983282;28;20199;-72
2023/12/10 00:53:21;;;;;;;28.73;23.33;;;;;;;3.30;61.89;94839.31;4973746;28;20441;-71
2023/12/10 00:55:46;;;;;;;26.80;20.57;;;;;;;3.28;62.35;94846.38;4977733;28;20228;-71
2023/12/10 00:58:13;;;;;;;29.17;22.80;;;;;;;3.26;62.25;94845.69;4978671;28;20228;-72
2023/12/10 01:00:40;;;;;;;26.73;22.57;;;;;;;3.17;62.71;94845.53;4968439;28;20215;-72
2023/12/10 01:03:06;;;;;;;25.37;20.30;;;;;;;3.11;63.22;94843.38;4993022;28;20210;-72
2023/12/10 01:05:32;;;;;;;27.17;22.23;;;;;;;3.16;62.91;94841.28;4984064;28;20224;-72
2023/12/10 01:07:57;;;;;;;28.03;22.37;;;;;;;3.16;62.44;94826.50;4981775;28;20223;-72
2023/12/10 01:10:23;;;;;;;27.70;22.10;;;;;;;3.00;63.62;94831.97;4982497;28;20228;-72
2023/12/10 01:12:48;;;;;;;26.60;23.00;;;;;;;2.86;64.02;94835.56;4981758;28;20273;-72
2023/12/10 01:15:14;;;;;;;26.83;23.17;;;;;;;3.10;63.11;94821.75;4980801;28;20301;-70
2023/12/10 01:17:39;;;;;;;28.13;22.30;;;;;;;3.02;63.56;94824.91;4987091;28;20190;-72
2023/12/10 01:20:05;;;;;;;27.33;22.93;;;;;;;3.00;63.49;94831.16;4990752;28;20377;-70
2023/12/10 01:22:31;;;;;;;26.97;20.87;;;;;;;3.21;62.71;94824.41;4975364;28;20220;-70
2023/12/10 01:24:58;;;;;;;27.10;22.20;;;;;;;3.25;62.31;94814.59;4983115;28;20220;-70
2023/12/10 01:27:23;;;;;;;28.33;23.73;;;;;;;2.84;63.24;94815.84;4984113;28;20212;-70
2023/12/10 01:29:49;;;;;;;27.40;23.53;;;;;;;2.94;63.67;94813.41;4980796;28;20188;-71
2023/12/10 01:32:14;;;;;;;27.23;22.13;;;;;;;2.92;63.27;94813.53;4979017;28;20227;-71
2023/12/10 01:34:43;;;;;;;29.23;21.97;;;;;;;2.90;63.63;94812.81;4980176;28;20224;-71
2023/12/10 01:37:08;;;;;;;23.40;20.77;;;;;;;3.01;63.22;94796.44;4977125;28;20275;-72
2023/12/10 01:39:34;;;;;;;26.63;21.60;;;;;;;2.97;63.18;94795.84;4979165;28;20227;-73
2023/12/10 01:42:00;;;;;;;26.10;21.57;;;;;;;2.91;63.87;94791.06;4983266;28;20191;-73
2023/12/10 01:44:26;;;;;;;23.83;21.23;;;;;;;3.02;63.10;94791.16;4983523;28;20184;-72
2023/12/10 01:46:51;;;;;;;27.23;22.33;;;;;;;2.96;63.28;94788.97;4979744;28;20271;-72
2023/12/10 01:49:18;;;;;;;27.70;22.40;;;;;;;3.00;63.24;94793.03;4984095;28;20238;-72
2023/12/10 01:51:44;;;;;;;25.07;22.37;;;;;;;2.96;63.13;94793.34;4980514;28;20220;-73
2023/12/10 01:54:22;;;;;;;28.53;21.97;;;;;;;2.90;63.49;94805.00;4984549;28;20192;-72
2023/12/10 01:56:49;;;;;;;25.17;22.17;;;;;;;2.70;64.51;94803.84;4990206;28;20216;-72
2023/12/10 01:59:17;;;;;;;28.67;22.63;;;;;;;2.92;63.67;94808.34;4983917;28;20224;-73
2023/12/10 02:01:44;;;;;;;24.23;20.67;;;;;;;3.01;63.46;94812.03;4979775;28;20224;-72
2023/12/10 02:04:10;;;;;;;24.50;19.57;;;;;;;3.02;62.94;94818.88;4988958;28;20212;-72
2023/12/10 02:06:36;;;;;;;23.60;20.20;;;;;;;3.03;62.61;94810.97;4988232;28;20224;-72
2023/12/10 02:09:04;;;;;;;22.67;19.60;;;;;;;3.18;62.22;94814.25;4988133;28;20183;-72
2023/12/10 02:11:30;;;;;;;22.37;19.83;;;;;;;3.11;62.73;94794.00;4984920;28;20322;-72
2023/12/10 02:13:55;;;;;;;24.37;20.03;;;;;;;3.20;62.19;94788.97;4989011;28;20301;-71
2023/12/10 02:16:21;;;;;;;23.43;18.30;;;;;;;2.88;63.42;94799.09;4988260;28;20234;-72
2023/12/10 02:18:46;;;;;;;22.63;18.83;;;;;;;3.21;62.55;94801.03;4987437;28;20358;-72
2023/12/10 02:21:12;;;;;;;22.63;18.43;;;;;;;3.24;62.19;94799.97;4998446;28;20630;-72
2023/12/10 02:23:55;;;;;;;25.77;18.97;;;;;;;3.11;62.61;94794.84;4993913;28;20179;-72
2023/12/10 02:26:20;;;;;;;27.27;20.63;;;;;;;3.03;63.07;94798.00;4991133;28;20219;-72
2023/12/10 02:28:46;;;;;;;27.43;21.80;;;;;;;2.93;63.55;94798.78;4984186;28;20223;-72
2023/12/10 02:31:11;;;;;;;23.53;20.87;;;;;;;2.93;63.51;94799.59;4984697;28;20227;-72
2023/12/10 02:33:36;;;;;;;23.33;20.00;;;;;;;3.05;62.85;94790.09;4986809;28;20223;-72
2023/12/10 02:36:02;;;;;;;22.13;17.40;;;;;;;3.08;63.12;94784.69;4983070;28;20223;-72
2023/12/10 02:38:27;;;;;;;22.83;17.87;;;;;;;3.06;62.89;94781.34;4987561;28;20190;-72
2023/12/10 02:40:53;;;;;;;25.47;18.80;;;;;;;3.08;62.79;94777.69;4986125;28;20294;-72
2023/12/10 02:43:19;;;;;;;24.47;18.40;;;;;;;3.15;62.66;94777.25;4985409;28;20219;-72
2023/12/10 02:45:46;;;;;;;24.03;19.33;;;;;;;3.23;62.32;94785.31;4985410;28;20258;-72
2023/12/10 02:48:11;;;;;;;22.57;19.07;;;;;;;3.11;62.60;94768.84;4995755;28;20187;-71
2023/12/10 02:50:37;;;;;;;22.10;17.93;;;;;;;3.20;62.11;94777.75;5001997;28;20215;-71
2023/12/10 02:53:02;;;;;;;23.30;18.23;;;;;;;3.07;62.74;94775.19;4984044;28;20246;-72
2023/12/10 02:55:28;;;;;;;27.27;20.10;;;;;;;3.05;63.26;94777.09;4989045;28;20219;-71
2023/12/10 02:57:53;;;;;;;27.13;19.13;;;;;;;3.04;63.21;94772.84;4975237;28;20220;-71
2023/12/10 03:00:19;;;;;;;24.97;18.67;;;;;;;3.13;62.99;94792.09;4973897;28;20230;-73
2023/12/10 03:02:44;;;;;;;22.90;18.07;;;;;;;3.21;62.77;94785.44;4972865;28;20184;-72
2023/12/10 03:05:10;;;;;;;25.03;18.53;;;;;;;3.05;62.99;94783.13;4985299;28;20231;-72
2023/12/10 03:07:35;;;;;;;26.33;21.23;;;;;;;2.99;62.98;94783.56;4994155;28;20247;-71
2023/12/10 03:10:01;;;;;;;25.37;18.83;;;;;;;2.97;63.26;94769.06;4991230;28;20226;-71
2023/12/10 03:12:27;;;;;;;23.93;20.73;;;;;;;3.02;63.32;94766.91;4994623;28;20226;-72
2023/12/10 03:14:52;;;;;;;24.23;20.20;;;;;;;2.93;63.67;94767.59;4983224;28;20195;-72
2023/12/10 03:17:18;;;;;;;26.17;20.33;;;;;;;2.95;63.51;94763.97;4991564;28;20211;-72
2023/12/10 03:19:44;;;;;;;23.67;20.87;;;;;;;2.99;63.42;94759.34;4977206;28;20223;-72
2023/12/10 03:22:10;;;;;;;26.03;22.07;;;;;;;3.04;63.62;94765.88;4981017;28;20219;-72
2023/12/10 03:24:35;;;;;;;26.77;21.60;;;;;;;2.87;63.90;94758.50;4987078;28;20359;-72
2023/12/10 03:27:00;;;;;;;24.37;21.43;;;;;;;2.81;64.43;94769.34;4989627;28;20180;-72
2023/12/10 03:29:26;;;;;;;25.73;22.20;;;;;;;2.94;63.78;94770.09;4991705;28;20190;-72
2023/12/10 03:31:51;;;;;;;23.87;20.30;;;;;;;3.13;63.08;94766.97;4987002;28;20246;-71
2023/12/10 03:34:17;;;;;;;22.17;18.50;;;;;;;2.92;63.59;94769.38;4989913;28;20272;-72
2023/12/10 03:36:42;;;;;;;22.50;17.47;;;;;;;3.07;62.81;94767.41;4988961;28;20236;-72
2023/12/10 03:39:08;;;;;;;23.47;18.13;;;;;;;3.00;63.27;94763.63;4989846;28;20179;-72
2023/12/10 03:41:33;;;;;;;22.77;20.27;;;;;;;2.71;64.08;94771.75;4990570;28;20186;-72
2023/12/10 03:43:59;;;;;;;24.07;20.47;;;;;;;2.85;63.74;94771.56;4972468;28;20219;-72
2023/12/10 03:46:24;;;;;;;27.47;19.63;;;;;;;2.81;64.05;94764.13;4978098;28;20279;-72
2023/12/10 03:48:51;;;;;;;23.93;19.27;;;;;;;2.91;63.38;94778.09;4987746;28;20230;-71
2023/12/10 03:51:17;;;;;;;22.90;19.27;;;;;;;2.57;64.86;94774.50;4986356;28;20252;-72
2023/12/10 03:53:42;;;;;;;20.83;18.57;;;;;;;2.79;64.13;94771.19;4991905;28;20182;-72
2023/12/10 03:56:09;;;;;;;21.30;18.57;;;;;;;2.64;64.32;94779.13;4993381;28;20227;-70
2023/12/10 03:58:35;;;;;;;23.53;20.80;;;;;;;2.67;64.66;94777.25;4978393;28;20238;-70
2023/12/10 04:01:01;;;;;;;24.97;20.70;;;;;;;2.63;64.29;94769.69;4986413;28;20223;-71
2023/12/10 04:03:26;;;;;;;23.00;20.17;;;;;;;2.76;63.95;94774.03;4987041;28;20219;-71
2023/12/10 04:05:52;;;;;;;21.43;19.07;;;;;;;2.89;63.84;94777.41;4988140;28;20255;-70
2023/12/10 04:08:17;;;;;;;24.07;19.67;;;;;;;2.87;63.79;94756.72;4992595;28;20224;-70
2023/12/10 04:10:43;;;;;;;21.80;19.30;;;;;;;3.07;62.84;94767.41;4992302;28;20223;-71
2023/12/10 04:13:08;;;;;;;20.97;18.40;;;;;;;2.92;63.28;94764.19;4985533;28;20299;-71
2023/12/10 04:15:33;;;;;;;24.23;20.60;;;;;;;2.99;63.49;94765.38;4979273;28;20228;-70
2023/12/10 04:17:59;;;;;;;23.60;21.10;;;;;;;2.98;62.97;94755.13;4964139;28;20218;-71
2023/12/10 04:20:25;;;;;;;23.20;19.50;;;;;;;3.09;63.08;94763.75;4992503;28;20183;-71
2023/12/10 04:22:50;;;;;;;22.37;17.37;;;;;;;3.08;62.55;94772.50;5000483;28;20245;-71
2023/12/10 04:25:16;;;;;;;22.27;18.20;;;;;;;2.86;63.68;94765.47;4981515;28;20216;-70
2023/12/10 04:27:41;;;;;;;24.10;19.43;;;;;;;2.93;63.47;94783.19;4987410;28;20226;-71
2023/12/10 04:30:07;;;;;;;21.10;17.97;;;;;;;2.91;63.32;94785.88;4995306;28;20194;-70
2023/12/10 04:32:33;;;;;;;23.50;20.27;;;;;;;2.86;63.17;94775.84;4984179;28;20211;-70
2023/12/10 04:34:58;;;;;;;22.80;17.50;;;;;;;2.94;63.44;94777.91;4985162;28;20243;-72
2023/12/10 04:37:24;;;;;;;23.13;18.17;;;;;;;2.93;63.28;94784.00;4970482;28;20273;-71
2023/12/10 04:39:49;;;;;;;23.67;20.23;;;;;;;2.97;63.49;94775.06;4977130;28;20227;-71
2023/12/10 04:42:15;;;;;;;24.83;20.87;;;;;;;2.59;64.50;94778.66;4991183;28;20247;-72
2023/12/10 04:44:40;;;;;;;24.87;21.77;;;;;;;2.70;64.23;94787.44;5004355;28;20175;-71
2023/12/10 04:47:06;;;;;;;25.23;20.67;;;;;;;2.81;63.93;94775.34;4996698;28;20215;-71
2023/12/10 04:49:31;;;;;;;25.20;21.50;;;;;;;2.75;64.19;94787.94;4986923;28;20215;-72
2023/12/10 04:51:57;;;;;;;23.90;19.17;;;;;;;2.69;64.50;94789.19;4985909;28;20229;-72
2023/12/10 04:54:22;;;;;;;25.50;21.03;;;;;;;2.68;64.81;94778.94;4990528;28;20237;-71
2023/12/10 04:56:48;;;;;;;24.57;19.93;;;;;;;2.60;65.00;94776.88;4987848;28;20207;-72
2023/12/10 04:59:13;;;;;;;25.27;18.97;;;;;;;2.64;65.02;94781.72;4994815;28;20214;-71
2023/12/10 05:01:39;;;;;;;22.87;18.83;;;;;;;2.60;65.46;94792.47;4984641;28;20224;-71
2023/12/10 05:04:04;;;;;;;22.00;18.77;;;;;;;2.57;65.62;94790.09;4985593;28;20217;-69
2023/12/10 05:06:30;;;;;;;22.37;19.53;;;;;;;2.48;66.52;94788.13;4986685;28;20250;-71
2023/12/10 05:08:56;;;;;;;25.60;19.17;;;;;;;2.56;65.96;94789.22;4994877;28;20266;-71
2023/12/10 05:11:22;;;;;;;22.30;19.83;;;;;;;2.58;65.90;94783.94;4988565;28;20238;-72
2023/12/10 05:13:47;;;;;;;20.97;18.17;;;;;;;2.72;65.62;94790.75;4991771;28;20230;-72
2023/12/10 05:16:13;;;;;;;21.00;17.40;;;;;;;2.69;65.27;94780.59;4984478;28;20243;-70
2023/12/10 05:18:38;;;;;;;21.53;18.77;;;;;;;2.70;65.43;94774.44;4989238;28;20269;-70
2023/12/10 05:21:04;;;;;;;20.50;18.10;;;;;;;2.80;65.04;94784.06;4984751;28;20191;-70
2023/12/10 05:23:30;;;;;;;18.50;15.30;;;;;;;2.69;65.12;94783.19;4977198;28;20179;-71
2023/12/10 05:25:55;;;;;;;21.00;18.27;;;;;;;2.60;65.93;94789.88;4984842;28;20216;-71
2023/12/10 05:28:21;;;;;;;21.73;18.03;;;;;;;2.43;66.42;94788.44;4985294;28;20224;-71
2023/12/10 05:30:46;;;;;;;19.50;17.10;;;;;;;2.62;66.04;94786.22;4982422;28;20333;-71
2023/12/10 05:33:12;;;;;;;21.00;18.10;;;;;;;2.63;65.77;94793.06;4988331;28;20187;-71
2023/12/10 05:35:37;;;;;;;22.60;18.07;;;;;;;2.58;65.95;94787.38;4987164;28;20237;-71
2023/12/10 05:38:03;;;;;;;22.87;18.03;;;;;;;2.23;67.02;94773.47;5002903;28;20234;-71
2023/12/10 05:40:29;;;;;;;21.60;17.93;;;;;;;2.36;66.78;94775.09;4983776;28;20243;-70
2023/12/10 05:42:54;;;;;;;22.20;17.50;;;;;;;2.38;66.55;94782.78;5003195;28;20261;-70
2023/12/10 05:45:20;;;;;;;19.50;16.87;;;;;;;2.53;66.24;94784.25;4988218;28;20222;-71
2023/12/10 05:47:46;;;;;;;19.93;17.77;;;;;;;2.45;66.38;94773.59;4992355;28;20186;-70
2023/12/10 05:50:11;;;;;;;19.90;17.43;;;;;;;2.53;66.43;94770.47;4982072;28;20227;-72
2023/12/10 05:52:36;;;;;;;19.83;17.63;;;;;;;2.54;66.23;94770.38;4982491;28;20239;-72
2023/12/10 05:55:02;;;;;;;20.73;17.30;;;;;;;2.53;66.53;94780.84;4983038;28;20226;-73
2023/12/10 05:57:28;;;;;;;21.07;18.03;;;;;;;2.23;67.23;94768.28;4986859;28;20292;-72
2023/12/10 05:59:54;;;;;;;18.77;16.87;;;;;;;2.28;67.38;94771.38;4987835;28;20211;-73
2023/12/10 06:02:21;;;;;;;21.90;18.33;;;;;;;2.30;67.04;94774.66;5006234;28;20283;-73
2023/12/10 06:04:47;;;;;;;21.77;18.50;;;;;;;2.31;67.04;94771.97;4989561;28;20366;-73
2023/12/10 06:07:12;;;;;;;20.47;18.10;;;;;;;2.16;67.53;94773.88;4989553;28;20310;-74
2023/12/10 06:09:38;;;;;;;21.67;18.07;;;;;;;2.35;67.29;94775.19;4980576;28;20219;-73
2023/12/10 06:12:03;;;;;;;19.97;16.97;;;;;;;2.41;67.19;94782.56;4975958;28;20203;-74
2023/12/10 06:14:29;;;;;;;21.33;18.43;;;;;;;2.46;66.84;94769.22;4984595;28;20187;-74
2023/12/10 06:16:54;;;;;;;21.27;18.43;;;;;;;2.61;66.54;94784.56;4983845;28;20224;-73
2023/12/10 06:19:21;;;;;;;21.20;18.17;;;;;;;2.63;66.26;94782.69;4983470;28;20226;-74
2023/12/10 06:21:46;;;;;;;23.27;18.80;;;;;;;2.51;66.73;94762.78;4981178;28;20215;-74
2023/12/10 06:24:12;;;;;;;25.00;17.13;;;;;;;2.54;66.51;94782.50;4998713;28;20252;-73
2023/12/10 06:26:37;;;;;;;24.40;19.30;;;;;;;2.39;66.53;94777.47;4986292;28;20187;-74
2023/12/10 06:29:02;;;;;;;23.20;18.47;;;;;;;2.09;68.14;94770.06;4988952;28;20218;-74
2023/12/10 06:31:28;;;;;;;22.67;19.70;;;;;;;2.40;67.16;94775.69;4986894;28;20246;-66
2023/12/10 06:33:53;;;;;;;22.27;19.33;;;;;;;2.58;66.52;94774.38;4981018;28;20223;-68
2023/12/10 06:36:19;;;;;;;22.60;17.30;;;;;;;2.63;66.23;94777.50;4966039;28;20222;-73
2023/12/10 06:38:44;;;;;;;24.93;17.90;;;;;;;2.51;66.35;94775.75;4992074;28;20191;-73
2023/12/10 06:41:10;;;;;;;23.37;20.27;;;;;;;2.49;66.24;94790.63;4973861;28;20215;-73
2023/12/10 06:43:35;;;;;;;24.47;20.93;;;;;;;2.54;66.42;94787.69;4973827;28;20212;-73
2023/12/10 06:46:01;;;;;;;24.07;20.17;;;;;;;2.43;66.71;94796.22;4983860;28;20234;-74
2023/12/10 06:48:26;;;;;;;26.07;21.40;;;;;;;2.32;67.18;94780.59;4989816;28;20276;-74
2023/12/10 06:50:53;;;;;;;24.37;18.30;;;;;;;2.45;67.08;94791.75;4991229;28;20290;-75
2023/12/10 06:53:18;;;;;;;22.83;17.47;;;;;;;2.43;66.80;94802.28;4989504;28;20227;-74
2023/12/10 06:55:44;;;;;;;22.50;19.60;;;;;;;2.37;67.60;94812.25;4986641;28;20234;-75
2023/12/10 06:58:10;;;;;;;24.07;18.10;;;;;;;2.52;66.88;94811.16;4996124;28;20235;-75
2023/12/10 07:00:35;;;;;;;23.73;20.07;;;;;;;2.45;67.20;94807.34;4986726;28;20239;-75
2023/12/10 07:03:01;;;;;;;22.07;17.23;;;;;;;2.53;67.16;94810.22;4986280;28;20187;-73
2023/12/10 07:05:26;;;;;;;22.47;16.93;;;;;;;2.66;67.26;94815.38;4993540;28;20246;-74
2023/12/10 07:07:52;;;;;;;23.23;18.57;;;;;;;2.64;67.37;94817.25;4992600;28;20222;-73
2023/12/10 07:10:17;;;;;;;22.50;17.40;;;;;;;2.73;66.99;94814.03;4985596;28;20224;-76
2023/12/10 07:12:43;;;;;;;22.43;16.73;;;;;;;2.53;67.52;94815.41;5007465;28;20215;-76
2023/12/10 07:15:08;;;;;;;20.97;16.07;;;;;;;2.41;67.81;94809.31;4989994;28;20191;-75
2023/12/10 07:17:36;;;;;;;23.60;18.13;;;;;;;2.32;68.02;94812.56;4990675;28;20278;-74
2023/12/10 07:20:02;;;;;;;23.07;20.07;;;;;;;2.35;68.20;94819.28;4984901;28;20238;-74
2023/12/10 07:22:27;;;;;;;20.87;17.10;;;;;;;2.31;68.27;94823.06;4986950;28;20222;-73
2023/12/10 07:24:52;;;;;;;24.73;19.17;;;;;;;2.26;68.26;94823.38;4988818;28;20306;-76
2023/12/10 07:27:18;;;;;;;21.70;18.27;;;;;;;2.36;68.02;94820.97;4990546;28;20225;-73
2023/12/10 07:29:44;;;;;;;25.20;19.73;;;;;;;2.34;67.95;94813.28;4985170;28;20201;-78
2023/12/10 07:32:09;;;;;;;28.17;18.67;;;;;;;2.51;68.16;94816.47;4988697;28;20225;-75
2023/12/10 07:34:35;;;;;;;21.17;17.13;;;;;;;2.60;67.70;94816.66;4992737;28;20223;-74
2023/12/10 07:37:00;;;;;;;21.13;17.43;;;;;;;2.49;67.79;94821.78;5000337;28;20234;-76
2023/12/10 07:39:25;;;;;;;22.13;17.57;;;;;;;2.33;68.42;94816.00;4985380;28;20238;-76
2023/12/10 07:41:51;;;;;;;22.47;19.10;;;;;;;2.52;67.84;94821.56;4974033;28;20192;-74
2023/12/10 07:44:17;;;;;;;23.23;19.77;;;;;;;2.66;67.93;94823.16;4988724;28;20223;-75
2023/12/10 07:46:42;;;;;;;23.73;19.53;;;;;;;2.98;66.87;94820.88;4985580;28;20223;-74
2023/12/10 07:49:08;;;;;;;22.43;17.67;;;;;;;3.15;65.97;94816.22;4986135;28;20281;-75
2023/12/10 07:51:33;;;;;;;23.97;18.40;;;;;;;3.15;65.30;94819.63;4986940;28;20307;-74
2023/12/10 07:53:59;;;;;;;23.43;17.53;;;;;;;3.52;64.24;94817.75;4990612;28;20193;-74
2023/12/10 07:56:24;;;;;;;24.97;18.30;;;;;;;3.59;63.53;94807.75;4978505;28;20216;-74
2023/12/10 07:58:50;;;;;;;24.90;18.80;;;;;;;3.22;64.65;94801.84;4979779;28;20223;-76
2023/12/10 08:01:15;;;;;;;23.17;19.20;;;;;;;3.36;64.27;94813.81;4980453;28;20219;-78
2023/12/10 08:03:41;;;;;;;23.47;18.67;;;;;;;3.32;64.78;94818.44;4992468;28;20250;-74
2023/12/10 08:06:07;;;;;;;23.80;18.93;;;;;;;3.49;64.21;94828.41;4990094;28;20236;-75
2023/12/10 08:08:32;;;;;;;24.27;19.17;;;;;;;3.52;64.13;94838.56;4990929;28;20191;-76
2023/12/10 08:10:58;;;;;;;24.07;19.47;;;;;;;3.51;64.06;94830.91;4988278;28;20293;-76
2023/12/10 08:13:23;;;;;;;22.83;17.93;;;;;;;3.46;63.87;94833.81;4990209;28;20231;-76
2023/12/10 08:15:49;;;;;;;22.70;17.83;;;;;;;3.52;63.78;94830.75;4986155;28;20239;-77
2023/12/10 08:18:15;;;;;;;23.53;18.17;;;;;;;3.60;63.82;94825.00;4985900;28;20245;-76
2023/12/10 08:20:40;;;;;;;24.30;18.93;;;;;;;3.61;63.88;94828.41;4975529;28;20195;-76
2023/12/10 08:23:06;;;;;;;22.67;18.77;;;;;;;3.73;63.59;94830.94;4986503;28;20223;-76
2023/12/10 08:25:31;;;;;;;21.90;17.80;;;;;;;3.90;62.46;94816.69;4995391;28;20219;-75
2023/12/10 08:27:56;;;;;;;25.33;17.93;;;;;;;3.59;63.71;94827.72;4990975;28;20234;-75
2023/12/10 08:30:22;;;;;;;23.07;18.53;;;;;;;3.24;64.41;94826.78;4986741;28;20215;-73
2023/12/10 08:32:47;;;;;;;20.87;16.23;;;;;;;3.42;64.20;94835.00;4984431;28;20207;-77
2023/12/10 08:35:13;;;;;;;22.23;16.60;;;;;;;3.36;64.08;94826.81;4985377;28;20275;-77
2023/12/10 08:37:38;;;;;;;21.17;17.60;;;;;;;3.42;64.49;94818.56;4986094;28;20335;-76
2023/12/10 08:40:05;;;;;;;21.20;16.50;;;;;;;3.71;63.70;94806.00;4981896;28;20224;-76
2023/12/10 08:42:31;;;;;;;22.57;16.77;;;;;;;3.78;62.83;94799.41;4987944;28;20222;-76
2023/12/10 08:44:58;;;;;;;22.67;16.37;;;;;;;3.67;63.43;94791.59;4989505;28;20190;-75
2023/12/10 08:47:23;;;;;;;23.17;17.57;;;;;;;3.50;64.09;94803.22;4973792;28;20224;-75
2023/12/10 08:49:49;;;;;;;23.70;18.20;;;;;;;3.30;64.67;94787.34;4981943;28;20250;-76
2023/12/10 08:52:14;;;;;;;22.57;17.83;;;;;;;3.42;64.73;94788.22;4983006;28;20223;-75
2023/12/10 08:54:40;;;;;;;22.80;17.33;;;;;;;3.61;64.25;94779.88;4977842;28;20236;-75
2023/12/10 08:57:05;;;;;;;24.30;18.77;;;;;;;3.58;64.21;94780.06;4959843;28;20216;-72
2023/12/10 08:59:30;;;;;;;19.73;15.03;;;;;;;3.61;63.70;94782.47;4979607;28;20318;-74
2023/12/10 09:01:56;;;;;;;22.23;16.10;;;;;;;3.58;63.61;94781.84;4983388;28;20242;-75
2023/12/10 09:04:21;;;;;;;18.93;15.80;;;;;;;3.59;63.49;94781.75;4971425;28;20251;-74
2023/12/10 09:06:47;;;;;;;18.73;14.37;;;;;;;3.62;63.24;94786.72;4967220;28;20231;-72
2023/12/10 09:09:12;;;;;;;18.43;14.83;;;;;;;3.58;62.89;94774.88;4986747;28;20187;-74
2023/12/10 09:11:38;;;;;;;19.43;15.67;;;;;;;3.57;63.70;94777.59;4989377;28;20179;-75
2023/12/10 09:14:03;;;;;;;20.53;15.50;;;;;;;3.62;63.42;94770.28;4982577;28;20246;-73
2023/12/10 09:16:29;;;;;;;19.30;15.87;;;;;;;3.80;62.65;94763.72;4992152;28;20250;-74
2023/12/10 09:18:54;;;;;;;21.53;15.57;;;;;;;4.08;61.81;94765.00;4975225;28;20239;-74
2023/12/10 09:21:20;;;;;;;22.10;16.13;;;;;;;4.10;62.00;94759.69;4968940;28;20187;-75
2023/12/10 09:23:45;;;;;;;22.00;15.13;;;;;;;4.11;61.76;94759.56;4986597;28;20205;-74
2023/12/10 09:26:10;;;;;;;20.47;15.90;;;;;;;4.10;62.61;94750.09;4987196;28;20226;-74
2023/12/10 09:28:37;;;;;;;17.27;14.43;;;;;;;4.38;61.45;94763.56;4989077;28;20595;-73
2023/12/10 09:31:03;;;;;;;22.17;14.43;;;;;;;4.63;61.22;94757.25;4968923;28;20310;-73
2023/12/10 09:33:28;;;;;;;20.13;15.27;;;;;;;4.96;59.69;94756.31;4976497;28;20355;-74
2023/12/10 09:35:54;;;;;;;18.87;14.80;;;;;;;5.00;59.58;94759.53;4974228;28;20223;-73
2023/12/10 09:38:19;;;;;;;18.20;15.20;;;;;;;5.26;58.59;94752.97;4982893;28;20223;-75
2023/12/10 09:40:45;;;;;;;20.67;16.10;;;;;;;5.14;58.63;94745.38;4992100;28;20219;-73
2023/12/10 09:43:11;;;;;;;20.47;15.50;;;;;;;5.16;58.75;94739.06;4972718;28;20235;-73
2023/12/10 09:45:37;;;;;;;17.93;15.43;;;;;;;5.22;58.59;94742.97;4967615;28;20242;-73
2023/12/10 09:48:02;;;;;;;24.03;16.53;;;;;;;5.37;58.28;94731.25;4980630;28;20191;-76
2023/12/10 09:50:32;;;;;;;20.83;15.43;;;;;;;5.53;57.67;94729.03;4973307;28;20230;-75
2023/12/10 09:52:57;;;;;;;19.20;16.20;;;;;;;5.61;57.41;94722.34;4964856;28;20224;-77
2023/12/10 09:55:23;;;;;;;18.70;15.67;;;;;;;5.75;57.12;94722.84;4981598;28;20215;-75
2023/12/10 09:57:48;;;;;;;20.47;15.67;;;;;;;5.57;57.62;94721.78;4983051;28;20250;-77
2023/12/10 10:00:16;;;;;;;20.53;16.07;;;;;;;5.70;56.59;94722.41;4971679;28;20240;-73
2023/12/10 10:02:41;;;;;;;18.97;15.97;;;;;;;5.68;57.28;94726.91;4988021;28;20197;-75
2023/12/10 10:05:08;;;;;;;19.97;16.77;;;;;;;5.79;56.82;94710.34;4951752;28;20320;-74
2023/12/10 10:07:33;;;;;;;24.37;18.43;;;;;;;5.56;57.45;94698.41;4978364;28;20242;-74
2023/12/10 10:09:59;;;;;;;23.50;19.73;;;;;;;5.74;56.86;94723.78;4987362;28;20255;-70
2023/12/10 10:12:29;;;;;;;23.23;20.53;;;;;;;5.72;57.46;94722.25;4991311;28;20234;-68
2023/12/10 10:14:59;;;;;;;35.57;22.97;;;;;;;5.95;57.88;94718.56;4985153;28;20220;-73
2023/12/10 10:17:29;;;;;;;23.33;20.30;;;;;;;6.33;55.87;94718.81;4996114;28;20338;-71
2023/12/10 10:19:55;;;;;;;26.30;20.93;;;;;;;6.44;54.64;94715.28;4988446;28;20608;-70
2023/12/10 10:22:23;;;;;;;26.83;22.17;;;;;;;6.31;55.08;94726.81;4983896;28;20265;-68
2023/12/10 10:24:49;;;;;;;42.70;26.00;;;;;;;6.57;55.07;94718.47;4991165;28;20229;-67
2023/12/10 10:27:14;;;;;;;24.97;21.10;;;;;;;6.55;54.68;94723.84;4976199;28;20207;-73
2023/12/10 10:29:40;;;;;;;28.60;21.50;;;;;;;6.46;54.74;94721.19;4981103;28;20220;-72
2023/12/10 10:32:08;;;;;;;28.63;22.17;;;;;;;6.42;55.02;94717.22;4986615;28;20230;-72
2023/12/10 10:34:34;;;;;;;25.33;21.67;;;;;;;6.58;53.99;94707.91;4974407;28;20227;-72
2023/12/10 10:36:59;;;;;;;24.93;20.83;;;;;;;6.54;54.56;94708.28;4972047;28;20239;-71
2023/12/10 10:39:27;;;;;;;26.33;21.60;;;;;;;6.70;54.31;94700.75;4984705;28;20215;-72
2023/12/10 10:41:53;;;;;;;24.70;20.60;;;;;;;7.05;53.39;94702.84;4988413;28;20186;-73
2023/12/10 10:44:18;;;;;;;23.90;20.60;;;;;;;7.13;52.69;94696.91;4981046;28;20246;-72
2023/12/10 10:46:44;;;;;;;23.97;20.97;;;;;;;7.38;52.16;94700.75;4981210;28;20243;-73
2023/12/10 10:49:10;;;;;;;23.20;20.67;;;;;;;7.41;51.81;94695.25;4979428;28;20231;-73
2023/12/10 10:51:35;;;;;;;23.83;19.83;;;;;;;7.19;52.14;94690.31;4985997;28;20224;-72
2023/12/10 10:54:04;;;;;;;25.00;20.73;;;;;;;7.03;52.61;94699.56;4971284;28;20196;-73
2023/12/10 10:56:30;;;;;;;25.33;19.73;;;;;;;6.91;53.10;94687.56;4971583;28;20234;-74
2023/12/10 10:58:55;;;;;;;22.30;19.90;;;;;;;6.69;53.35;94690.47;4992159;28;20227;-73
2023/12/10 11:01:42;;;;;;;25.40;19.73;;;;;;;6.88;52.90;94682.63;4979976;28;20223;-73
2023/12/10 11:04:12;;;;;;;24.77;21.13;;;;;;;6.76;52.80;94681.94;4976201;28;20251;-78
2023/12/10 11:06:39;;;;;;;23.20;19.03;;;;;;;6.94;52.44;94682.06;4971814;28;20227;-76
2023/12/10 11:09:05;;;;;;;21.13;18.87;;;;;;;6.78;53.11;94664.31;4990042;28;20299;-77
2023/12/10 11:11:38;;;;;;;23.73;19.40;;;;;;;6.88;53.37;94664.31;4986331;28;20246;-77
2023/12/10 11:14:04;;;;;;;23.60;20.47;;;;;;;7.21;52.28;94652.59;4996236;28;20230;-78
2023/12/10 11:16:33;;;;;;;23.73;19.50;;;;;;;7.15;52.82;94657.56;4989612;28;20295;-77
2023/12/10 11:18:59;;;;;;;25.67;18.60;;;;;;;7.47;51.95;94662.47;4996451;28;20226;-77